Time;durP1;ratioP1;P1;durP2;ratioP2;P2;SDS_P1;SDS_P2;PMS_P1;PMS_P2;Temp;Humidity;BMP_temperature;BMP_pressure;BME280_temperature;BME280_humidity;BME280_pressure;Samples;Min_cycle;Max_cycle;Signal;HPM_P1;HPM_P2
2022/07/22 00:01:14;;;;;;;5.22;4.43;;;19.80;99.90;;;;;;5073293;28;20201;-56
2022/07/22 00:03:41;;;;;;;4.88;4.35;;;19.70;99.90;;;;;;5073411;28;20204;-55
2022/07/22 00:06:07;;;;;;;5.82;4.57;;;19.70;99.90;;;;;;5073124;28;20205;-55
2022/07/22 00:08:34;;;;;;;8.68;5.13;;;19.80;99.90;;;;;;5072755;28;20212;-56
2022/07/22 00:11:01;;;;;;;9.00;4.97;;;19.70;99.90;;;;;;5073030;28;20212;-55
2022/07/22 00:13:29;;;;;;;11.18;5.03;;;19.70;99.90;;;;;;5073197;28;20228;-55
2022/07/22 00:15:55;;;;;;;8.63;5.05;;;19.80;99.90;;;;;;5073122;28;20259;-55
2022/07/22 00:18:22;;;;;;;6.30;4.57;;;19.80;99.90;;;;;;5072647;28;20282;-55
2022/07/22 00:20:49;;;;;;;5.45;4.95;;;19.70;99.90;;;;;;5072688;28;20204;-56
2022/07/22 00:23:16;;;;;;;5.00;4.50;;;19.80;99.90;;;;;;5072888;28;20261;-56
2022/07/22 00:25:42;;;;;;;5.97;4.47;;;19.80;99.90;;;;;;5073274;28;20200;-55
2022/07/22 00:28:09;;;;;;;7.65;5.03;;;19.70;99.90;;;;;;5073077;28;20212;-56
2022/07/22 00:30:37;;;;;;;6.32;4.63;;;19.80;99.90;;;;;;5073102;28;20216;-56
2022/07/22 00:33:04;;;;;;;5.15;4.40;;;19.80;99.90;;;;;;5072871;28;20290;-56
2022/07/22 00:35:31;;;;;;;5.45;4.78;;;19.90;99.90;;;;;;5072727;28;20262;-56
2022/07/22 00:37:58;;;;;;;6.63;4.47;;;19.80;99.90;;;;;;5072668;28;20611;-56
2022/07/22 00:40:24;;;;;;;6.07;4.78;;;19.80;99.90;;;;;;5072858;28;20209;-56
2022/07/22 00:42:52;;;;;;;6.15;4.40;;;19.70;99.90;;;;;;5072676;28;20229;-56
2022/07/22 00:45:19;;;;;;;6.78;5.03;;;19.70;99.90;;;;;;5072315;28;20557;-57
2022/07/22 00:47:47;;;;;;;5.40;4.90;;;19.70;99.90;;;;;;5072271;28;20209;-57
2022/07/22 00:50:14;;;;;;;5.32;4.80;;;19.60;99.90;;;;;;5071883;28;20205;-56
2022/07/22 00:52:42;;;;;;;6.72;5.20;;;19.50;99.90;;;;;;5072108;28;20286;-56
2022/07/22 00:55:10;;;;;;;5.85;4.95;;;19.60;99.90;;;;;;5072444;28;20216;-56
2022/07/22 00:57:37;;;;;;;6.88;5.32;;;19.60;99.90;;;;;;5072092;28;20232;-56
2022/07/22 01:00:06;;;;;;;7.00;5.25;;;19.60;99.90;;;;;;5071913;28;20590;-57
2022/07/22 01:02:33;;;;;;;8.00;5.57;;;19.60;99.90;;;;;;5071927;28;20385;-56
2022/07/22 01:05:01;;;;;;;6.25;5.40;;;19.70;99.90;;;;;;5072341;28;20254;-56
2022/07/22 01:07:28;;;;;;;6.75;5.28;;;19.60;99.90;;;;;;5072190;28;20197;-57
2022/07/22 01:09:54;;;;;;;6.53;4.90;;;19.50;99.90;;;;;;5071773;28;20310;-57
2022/07/22 01:12:21;;;;;;;6.72;4.82;;;19.50;99.90;;;;;;5071433;28;20306;-56
2022/07/22 01:14:48;;;;;;;8.02;4.70;;;19.40;99.90;;;;;;5072055;28;20212;-58
2022/07/22 01:17:14;;;;;;;6.07;5.10;;;19.40;99.90;;;;;;5071819;28;20221;-56
2022/07/22 01:19:41;;;;;;;5.97;4.78;;;19.40;99.90;;;;;;5072061;28;20262;-56
2022/07/22 01:22:09;;;;;;;5.53;5.03;;;19.30;99.90;;;;;;5072440;28;20229;-56
2022/07/22 01:24:36;;;;;;;6.97;5.13;;;19.40;99.90;;;;;;5072616;28;20228;-56
2022/07/22 01:27:03;;;;;;;6.13;5.32;;;19.30;99.90;;;;;;5072155;28;20200;-56
2022/07/22 01:29:30;;;;;;;6.65;5.65;;;19.30;99.90;;;;;;5071573;28;20310;-58
2022/07/22 01:31:57;;;;;;;5.13;4.63;;;19.20;99.90;;;;;;5071573;28;20254;-56
2022/07/22 01:34:24;;;;;;;5.25;4.75;;;19.10;99.90;;;;;;5071858;28;20205;-58
2022/07/22 01:36:51;;;;;;;5.32;4.82;;;19.10;99.90;;;;;;5071809;28;20274;-56
2022/07/22 01:39:19;;;;;;;8.27;5.30;;;19.00;99.90;;;;;;5071607;28;20212;-56
2022/07/22 01:41:45;;;;;;;5.75;5.20;;;18.90;99.90;;;;;;5072060;28;20240;-56
2022/07/22 01:44:12;;;;;;;6.47;4.85;;;18.80;99.90;;;;;;5071655;28;20258;-58
2022/07/22 01:46:39;;;;;;;5.32;4.75;;;18.70;99.90;;;;;;5071515;28;20205;-57
2022/07/22 01:49:06;;;;;;;5.45;4.95;;;18.70;99.90;;;;;;5071589;28;20205;-56
2022/07/22 01:51:33;;;;;;;6.57;5.32;;;18.60;99.90;;;;;;5071419;28;20673;-56
2022/07/22 01:53:59;;;;;;;6.00;4.80;;;18.60;99.90;;;;;;5071689;28;20234;-56
2022/07/22 01:56:28;;;;;;;5.55;5.03;;;18.60;99.90;;;;;;5071546;28;20211;-57
2022/07/22 01:58:55;;;;;;;8.35;5.03;;;18.60;99.90;;;;;;5071062;28;20225;-57
2022/07/22 02:01:22;;;;;;;8.85;5.45;;;18.60;99.90;;;;;;5071593;28;20205;-56
2022/07/22 02:03:48;;;;;;;6.28;5.38;;;18.60;99.90;;;;;;5071610;28;20212;-56
2022/07/22 02:06:15;;;;;;;7.55;5.45;;;18.60;99.90;;;;;;5071507;28;20201;-56
2022/07/22 02:08:42;;;;;;;5.53;4.85;;;18.60;99.90;;;;;;5071292;28;20204;-56
2022/07/22 02:11:08;;;;;;;6.20;5.15;;;18.50;99.90;;;;;;5071480;28;20205;-56
2022/07/22 02:13:36;;;;;;;6.60;5.90;;;18.50;99.90;;;;;;5071308;28;20657;-56
2022/07/22 02:16:03;;;;;;;5.90;5.30;;;18.50;99.90;;;;;;5072164;28;20212;-58
2022/07/22 02:18:30;;;;;;;8.35;5.57;;;18.50;99.90;;;;;;5071199;28;20282;-56
2022/07/22 02:20:56;;;;;;;8.55;5.72;;;18.50;99.90;;;;;;5071955;28;20235;-55
2022/07/22 02:23:23;;;;;;;7.90;5.45;;;18.50;99.90;;;;;;5074469;28;20608;-57
2022/07/22 02:25:50;;;;;;;6.22;5.43;;;18.50;99.90;;;;;;5075107;28;20205;-56
2022/07/22 02:28:16;;;;;;;6.15;5.35;;;18.50;99.90;;;;;;5074789;28;20208;-55
2022/07/22 02:30:44;;;;;;;8.52;5.82;;;18.40;99.90;;;;;;5074833;28;20205;-56
2022/07/22 02:33:11;;;;;;;6.55;5.75;;;18.40;99.90;;;;;;5074640;28;20770;-56
2022/07/22 02:35:38;;;;;;;6.22;5.20;;;18.40;99.90;;;;;;5074854;28;20213;-57
2022/07/22 02:38:05;;;;;;;6.32;5.18;;;18.40;99.90;;;;;;5074567;28;20228;-58
2022/07/22 02:40:32;;;;;;;5.85;5.32;;;18.30;99.90;;;;;;5074430;28;20653;-59
2022/07/22 02:42:58;;;;;;;5.90;4.97;;;18.30;99.90;;;;;;5074893;28;20225;-57
2022/07/22 02:45:25;;;;;;;9.70;5.55;;;18.30;99.90;;;;;;5074739;28;20209;-56
2022/07/22 02:47:55;;;;;;;6.70;5.00;;;18.30;99.90;;;;;;5074495;28;20647;-58
2022/07/22 02:50:23;;;;;;;5.90;5.30;;;18.20;99.90;;;;;;5074405;28;20201;-57
2022/07/22 02:52:50;;;;;;;7.57;5.07;;;18.20;99.90;;;;;;5074482;28;20245;-57
2022/07/22 02:55:17;;;;;;;6.20;5.22;;;18.30;99.90;;;;;;5074705;28;20254;-57
2022/07/22 02:57:44;;;;;;;6.30;5.68;;;18.30;99.90;;;;;;5074476;28;20774;-57
2022/07/22 03:00:12;;;;;;;6.80;5.00;;;18.20;99.90;;;;;;5074298;28;20209;-57
2022/07/22 03:02:40;;;;;;;6.88;5.30;;;18.30;99.90;;;;;;5074329;28;20229;-57
2022/07/22 03:05:08;;;;;;;7.45;4.75;;;18.20;99.90;;;;;;5074262;28;20200;-58
2022/07/22 03:07:35;;;;;;;5.88;5.25;;;18.20;99.90;;;;;;5074075;28;20581;-55
2022/07/22 03:10:02;;;;;;;7.03;5.70;;;18.20;99.90;;;;;;5073956;28;20617;-56
2022/07/22 03:12:29;;;;;;;6.03;5.43;;;18.20;99.90;;;;;;5074305;28;20221;-56
2022/07/22 03:14:56;;;;;;;10.85;8.13;;;18.20;99.90;;;;;;5074264;28;20258;-57
2022/07/22 03:17:23;;;;;;;9.85;6.95;;;18.20;99.90;;;;;;5074014;28;20228;-59
2022/07/22 03:19:49;;;;;;;9.10;6.50;;;18.10;99.90;;;;;;5074266;28;20211;-56
2022/07/22 03:22:17;;;;;;;6.55;5.47;;;18.00;99.90;;;;;;5073829;28;20225;-56
2022/07/22 03:24:44;;;;;;;9.10;6.30;;;18.00;99.90;;;;;;5074105;28;20308;-56
2022/07/22 03:27:11;;;;;;;7.88;6.05;;;18.00;99.90;;;;;;5074022;28;20209;-56
2022/07/22 03:29:37;;;;;;;7.65;6.72;;;17.90;99.90;;;;;;5073607;28;20205;-56
2022/07/22 03:32:05;;;;;;;7.30;6.57;;;17.90;99.90;;;;;;5073710;28;20267;-56
2022/07/22 03:34:31;;;;;;;14.35;11.48;;;17.90;99.90;;;;;;5073606;28;20692;-56
2022/07/22 03:36:58;;;;;;;6.50;5.38;;;17.90;99.90;;;;;;5073290;28;20738;-57
2022/07/22 03:39:26;;;;;;;6.45;5.90;;;17.90;99.90;;;;;;5073408;28;20708;-57
2022/07/22 03:41:52;;;;;;;7.70;5.57;;;17.90;99.90;;;;;;5073763;28;20233;-56
2022/07/22 03:44:19;;;;;;;6.28;5.68;;;17.80;99.90;;;;;;5073704;28;20201;-57
2022/07/22 03:46:46;;;;;;;6.80;6.10;;;17.80;99.90;;;;;;5073989;28;20213;-56
2022/07/22 03:49:12;;;;;;;8.63;5.47;;;17.80;99.90;;;;;;5073127;28;20201;-56
2022/07/22 03:51:39;;;;;;;6.13;5.53;;;17.80;99.90;;;;;;5073808;28;20355;-58
2022/07/22 03:54:06;;;;;;;6.20;5.57;;;17.90;99.90;;;;;;5073539;28;20213;-58
2022/07/22 03:56:34;;;;;;;8.48;5.50;;;17.90;99.90;;;;;;5073439;28;20716;-58
2022/07/22 03:59:01;;;;;;;6.70;6.05;;;18.00;99.90;;;;;;5073086;28;20261;-58
2022/07/22 04:01:27;;;;;;;6.10;5.47;;;18.00;99.90;;;;;;5073087;28;20227;-58
2022/07/22 04:03:54;;;;;;;7.32;5.55;;;18.00;99.90;;;;;;5073109;28;20621;-58
2022/07/22 04:06:21;;;;;;;8.63;5.68;;;18.00;99.90;;;;;;5073376;28;20261;-58
2022/07/22 04:08:48;;;;;;;9.77;6.15;;;18.00;99.90;;;;;;5073025;28;20201;-58
2022/07/22 04:11:15;;;;;;;6.82;6.13;;;18.00;99.90;;;;;;5073039;28;20240;-58
2022/07/22 04:13:43;;;;;;;6.05;5.45;;;18.00;99.90;;;;;;5072916;28;20205;-58
2022/07/22 04:16:09;;;;;;;7.60;6.03;;;18.10;99.90;;;;;;5072716;28;20209;-58
2022/07/22 04:18:36;;;;;;;9.50;5.60;;;18.10;99.90;;;;;;5072326;28;20293;-58
2022/07/22 04:21:03;;;;;;;6.88;5.80;;;18.20;99.90;;;;;;5072902;28;20205;-57
2022/07/22 04:23:30;;;;;;;6.63;6.03;;;18.20;99.90;;;;;;5072669;28;20278;-58
2022/07/22 04:25:56;;;;;;;7.53;6.47;;;18.20;99.90;;;;;;5072719;28;20209;-58
2022/07/22 04:28:23;;;;;;;6.65;5.95;;;18.30;99.90;;;;;;5072645;28;20201;-58
2022/07/22 04:30:51;;;;;;;8.20;5.75;;;18.30;99.90;;;;;;5072429;28;20223;-58
2022/07/22 04:33:18;;;;;;;7.32;5.55;;;18.30;99.90;;;;;;5072441;28;20789;-58
2022/07/22 04:35:44;;;;;;;6.70;5.35;;;18.30;99.90;;;;;;5072491;28;20204;-57
2022/07/22 04:38:11;;;;;;;6.47;5.80;;;18.30;99.90;;;;;;5072816;28;20225;-58
2022/07/22 04:40:38;;;;;;;5.70;5.18;;;18.40;99.90;;;;;;5072435;28;20212;-58
2022/07/22 04:43:05;;;;;;;6.78;6.00;;;18.40;99.90;;;;;;5072352;28;20654;-57
2022/07/22 04:45:32;;;;;;;6.93;5.55;;;18.50;99.90;;;;;;5072101;28;20244;-58
2022/07/22 04:48:00;;;;;;;7.97;5.82;;;18.50;99.90;;;;;;5071521;28;20208;-58
2022/07/22 04:50:26;;;;;;;8.32;6.43;;;18.60;99.90;;;;;;5072260;28;20262;-58
2022/07/22 04:52:53;;;;;;;9.90;6.00;;;18.70;99.90;;;;;;5072104;28;20232;-58
2022/07/22 04:55:20;;;;;;;7.00;6.00;;;18.80;99.90;;;;;;5072249;28;20209;-59
2022/07/22 04:57:46;;;;;;;6.05;5.45;;;18.80;99.90;;;;;;5072183;28;20736;-58
2022/07/22 05:00:15;;;;;;;6.45;5.57;;;18.90;99.90;;;;;;5072031;28;20626;-58
2022/07/22 05:02:42;;;;;;;10.20;5.93;;;19.00;99.90;;;;;;5072099;28;20236;-57
2022/07/22 05:05:10;;;;;;;8.25;6.00;;;19.00;99.90;;;;;;5072196;28;20255;-57
2022/07/22 05:07:37;;;;;;;7.68;5.72;;;19.10;99.90;;;;;;5072459;28;20205;-58
2022/07/22 05:10:04;;;;;;;6.53;5.60;;;19.30;99.90;;;;;;5071584;28;20676;-58
2022/07/22 05:12:31;;;;;;;9.75;5.80;;;19.40;99.90;;;;;;5071884;28;20224;-58
2022/07/22 05:14:58;;;;;;;6.30;5.60;;;19.50;99.90;;;;;;5072057;28;20213;-58
2022/07/22 05:17:25;;;;;;;12.60;5.93;;;19.60;99.90;;;;;;5072709;28;20274;-58
2022/07/22 05:19:51;;;;;;;6.15;5.38;;;19.70;99.90;;;;;;5071511;28;20266;-58
2022/07/22 05:22:19;;;;;;;6.47;5.43;;;19.80;99.90;;;;;;5071830;28;20233;-58
2022/07/22 05:24:46;;;;;;;8.23;6.05;;;19.90;99.90;;;;;;5071847;28;20213;-57
2022/07/22 05:27:13;;;;;;;7.75;5.88;;;20.10;99.90;;;;;;5071633;28;20200;-58
2022/07/22 05:29:40;;;;;;;6.80;6.10;;;20.20;99.90;;;;;;5071536;28;20220;-58
2022/07/22 05:32:06;;;;;;;6.60;5.60;;;20.40;99.90;;;;;;5071803;28;20229;-58
2022/07/22 05:34:33;;;;;;;8.02;6.35;;;20.50;99.90;;;;;;5071769;28;20208;-58
2022/07/22 05:37:00;;;;;;;7.00;6.30;;;20.60;99.90;;;;;;5071820;28;20216;-58
2022/07/22 05:39:28;;;;;;;7.55;6.82;;;21.30;99.90;;;;;;5071443;28;20608;-58
2022/07/22 05:41:54;;;;;;;7.63;6.05;;;22.70;99.90;;;;;;5071433;28;20229;-58
2022/07/22 05:44:21;;;;;;;6.97;5.90;;;24.40;99.90;;;;;;5071762;28;20227;-59
2022/07/22 05:46:48;;;;;;;7.03;5.95;;;26.20;99.90;;;;;;5071688;28;20212;-59
2022/07/22 05:49:14;;;;;;;7.13;5.57;;;27.90;99.90;;;;;;5071408;28;20258;-58
2022/07/22 05:51:41;;;;;;;6.05;5.43;;;29.50;99.90;;;;;;5071299;28;20247;-58
2022/07/22 05:54:08;;;;;;;11.90;5.63;;;30.90;99.90;;;;;;5071516;28;20211;-59
2022/07/22 05:56:36;;;;;;;5.95;5.13;;;32.00;97.80;;;;;;5071404;28;20304;-58
2022/07/22 05:59:03;;;;;;;7.68;5.50;;;33.10;93.10;;;;;;5073585;28;20229;-57
2022/07/22 06:01:29;;;;;;;5.55;4.68;;;34.20;90.50;;;;;;5075157;28;20690;-57
2022/07/22 06:03:56;;;;;;;7.00;5.47;;;35.10;81.20;;;;;;5075547;28;20208;-57
2022/07/22 06:06:23;;;;;;;5.47;4.90;;;35.60;76.80;;;;;;5075385;28;20209;-57
2022/07/22 06:08:50;;;;;;;7.10;5.70;;;35.90;74.30;;;;;;5074941;28;20669;-57
2022/07/22 06:11:16;;;;;;;6.03;5.32;;;35.30;73.60;;;;;;5075374;28;20209;-57
2022/07/22 06:13:44;;;;;;;7.07;5.55;;;34.90;76.50;;;;;;5075353;28;20267;-57
2022/07/22 06:16:11;;;;;;;9.25;5.25;;;35.60;73.60;;;;;;5075211;28;20254;-57
2022/07/22 06:18:38;;;;;;;8.65;5.00;;;36.30;70.20;;;;;;5075228;28;20224;-61
2022/07/22 06:21:05;;;;;;;6.20;4.82;;;36.30;69.20;;;;;;5064506;28;20201;-60
2022/07/22 06:23:32;;;;;;;6.95;4.68;;;36.00;70.30;;;;;;5075945;28;20217;-59
2022/07/22 06:25:59;;;;;;;5.47;4.72;;;36.70;67.40;;;;;;5074173;28;20266;-60
2022/07/22 06:28:26;;;;;;;6.85;4.78;;;37.30;64.20;;;;;;5073871;28;20205;-57
2022/07/22 06:30:54;;;;;;;7.47;4.90;;;37.40;63.90;;;;;;5073697;28;20220;-57
2022/07/22 06:33:20;;;;;;;6.78;4.72;;;37.80;61.60;;;;;;5073126;28;20228;-58
2022/07/22 06:35:47;;;;;;;7.50;4.78;;;37.90;61.10;;;;;;5073890;28;20213;-58
2022/07/22 06:38:13;;;;;;;7.97;4.95;;;36.90;62.90;;;;;;5073406;28;20205;-58
2022/07/22 06:40:40;;;;;;;6.80;4.70;;;37.00;63.60;;;;;;5073974;28;20204;-59
2022/07/22 06:43:07;;;;;;;4.40;4.00;;;38.00;61.10;;;;;;5073695;28;20232;-56
2022/07/22 06:45:34;;;;;;;5.82;4.65;;;39.10;57.90;;;;;;5073394;28;20205;-59
2022/07/22 06:48:02;;;;;;;5.75;4.43;;;39.90;56.20;;;;;;5073754;28;20280;-58
2022/07/22 06:50:28;;;;;;;6.70;4.90;;;40.20;54.90;;;;;;5073812;28;20208;-62
2022/07/22 06:52:55;;;;;;;6.50;5.07;;;40.20;53.70;;;;;;5073622;28;20240;-60
2022/07/22 06:55:22;;;;;;;5.20;4.70;;;39.20;55.30;;;;;;5074011;28;20556;-58
2022/07/22 06:57:48;;;;;;;7.88;4.55;;;38.90;55.60;;;;;;5073660;28;20209;-61
2022/07/22 07:00:16;;;;;;;6.00;4.50;;;38.30;56.70;;;;;;5073472;28;20708;-61
2022/07/22 07:02:43;;;;;;;7.25;4.90;;;38.30;56.30;;;;;;5073523;28;20624;-58
2022/07/22 07:05:12;;;;;;;8.02;4.75;;;38.70;55.50;;;;;;5073273;28;20209;-59
2022/07/22 07:07:38;;;;;;;6.22;5.00;;;39.30;54.60;;;;;;5073393;28;20208;-64
2022/07/22 07:10:06;;;;;;;7.45;4.80;;;39.30;53.80;;;;;;5071843;28;20575;-58
2022/07/22 07:12:32;;;;;;;10.95;4.90;;;39.10;54.80;;;;;;5073249;28;20735;-59
2022/07/22 07:14:59;;;;;;;7.10;6.28;;;39.60;53.40;;;;;;5073020;28;20220;-60
2022/07/22 07:17:26;;;;;;;7.00;4.72;;;39.90;53.30;;;;;;5073007;28;20209;-58
2022/07/22 07:19:52;;;;;;;5.00;4.53;;;39.70;53.00;;;;;;5072596;28;20566;-59
2022/07/22 07:22:20;;;;;;;5.95;4.60;;;38.20;55.20;;;;;;5072586;28;20294;-59
2022/07/22 07:24:47;;;;;;;6.43;4.50;;;38.40;55.80;;;;;;5072819;28;20262;-58
2022/07/22 07:27:14;;;;;;;5.63;4.22;;;39.70;54.10;;;;;;5073302;28;20224;-59
2022/07/22 07:29:40;;;;;;;5.47;4.28;;;40.80;52.20;;;;;;5072567;28;20719;-61
2022/07/22 07:32:07;;;;;;;9.13;5.53;;;41.90;49.90;;;;;;5073318;28;20224;-58
2022/07/22 07:34:34;;;;;;;5.00;4.32;;;42.10;49.10;;;;;;5073792;28;20204;-59
2022/07/22 07:37:00;;;;;;;6.93;4.85;;;42.10;49.30;;;;;;5073589;28;20295;-57
2022/07/22 07:39:28;;;;;;;7.43;4.53;;;42.50;48.70;;;;;;5073090;28;20440;-55
2022/07/22 07:41:55;;;;;;;6.78;4.22;;;43.00;47.40;;;;;;5073444;28;20225;-57
2022/07/22 07:44:22;;;;;;;5.68;4.50;;;42.30;48.10;;;;;;5073166;28;20266;-59
2022/07/22 07:46:48;;;;;;;6.97;3.83;;;42.40;47.60;;;;;;5070873;28;20212;-56
2022/07/22 07:49:15;;;;;;;5.72;4.45;;;43.00;46.50;;;;;;5070607;28;20203;-55
2022/07/22 07:51:42;;;;;;;7.65;4.43;;;43.30;46.20;;;;;;5071013;28;20240;-56
2022/07/22 07:54:08;;;;;;;5.72;4.43;;;43.60;45.60;;;;;;5072736;28;20208;-55
2022/07/22 07:56:37;;;;;;;5.85;4.22;;;43.50;45.70;;;;;;5070727;28;20208;-57
2022/07/22 07:59:03;;;;;;;5.03;4.40;;;43.20;45.40;;;;;;5070994;28;20231;-58
2022/07/22 08:01:30;;;;;;;5.72;4.00;;;43.20;45.40;;;;;;5071314;28;20205;-58
2022/07/22 08:03:58;;;;;;;4.32;3.92;;;43.60;45.20;;;;;;5071769;28;20630;-58
2022/07/22 08:06:24;;;;;;;6.38;4.30;;;44.10;44.40;;;;;;5070852;28;20212;-55
2022/07/22 08:08:51;;;;;;;5.00;3.90;;;44.60;43.20;;;;;;5071656;28;20680;-61
2022/07/22 08:11:18;;;;;;;4.70;4.30;;;45.00;43.70;;;;;;5071324;28;20269;-61
2022/07/22 08:13:46;;;;;;;7.25;3.92;;;45.30;42.60;;;;;;5072261;28;20262;-60
2022/07/22 08:16:13;;;;;;;5.70;4.25;;;45.20;42.60;;;;;;5071730;28;20200;-61
2022/07/22 08:18:40;;;;;;;4.90;4.40;;;45.10;42.30;;;;;;5072099;28;20672;-61
2022/07/22 08:21:06;;;;;;;5.03;4.22;;;45.30;42.20;;;;;;5071781;28;20509;-61
2022/07/22 08:23:33;;;;;;;4.63;4.13;;;45.30;42.30;;;;;;5071628;28;20220;-61
2022/07/22 08:26:00;;;;;;;4.53;4.05;;;45.60;41.40;;;;;;5071782;28;20200;-62
2022/07/22 08:28:27;;;;;;;4.40;4.00;;;45.50;41.60;;;;;;5072076;28;20204;-62
2022/07/22 08:30:55;;;;;;;4.00;3.70;;;45.40;41.40;;;;;;5071832;28;20205;-61
2022/07/22 08:33:21;;;;;;;5.22;4.38;;;45.10;42.00;;;;;;5071692;28;20235;-62
2022/07/22 08:35:48;;;;;;;6.05;4.32;;;44.70;41.90;;;;;;5071151;28;20618;-62
2022/07/22 08:38:15;;;;;;;6.65;4.88;;;44.50;42.20;;;;;;5071560;28;20707;-62
2022/07/22 08:40:42;;;;;;;4.93;4.22;;;44.30;42.10;;;;;;5071133;28;20224;-61
2022/07/22 08:43:08;;;;;;;4.90;4.20;;;44.50;41.60;;;;;;5071197;28;20643;-62
2022/07/22 08:45:35;;;;;;;4.82;4.32;;;44.40;42.10;;;;;;5071620;28;20204;-62
2022/07/22 08:48:05;;;;;;;5.00;4.50;;;43.80;42.70;;;;;;5071261;28;20208;-62
2022/07/22 08:50:32;;;;;;;6.15;4.50;;;42.50;44.40;;;;;;5071148;28;20287;-61
2022/07/22 08:52:59;;;;;;;4.93;4.43;;;41.30;45.70;;;;;;5071220;28;20241;-61
2022/07/22 08:55:26;;;;;;;4.72;4.25;;;39.80;47.80;;;;;;5071009;28;20200;-62
2022/07/22 08:57:52;;;;;;;6.75;5.35;;;38.00;49.90;;;;;;5071127;28;20216;-61
2022/07/22 09:00:21;;;;;;;6.32;5.38;;;36.20;52.50;;;;;;5070603;28;20716;-62
2022/07/22 09:02:48;;;;;;;6.00;5.20;;;35.00;54.70;;;;;;5071174;28;20225;-65
2022/07/22 09:05:18;;;;;;;7.22;5.38;;;34.10;57.00;;;;;;5071302;28;20208;-64
2022/07/22 09:07:46;;;;;;;6.63;5.30;;;33.20;58.90;;;;;;5071165;28;20582;-64
2022/07/22 09:10:15;;;;;;;9.05;5.88;;;32.50;60.60;;;;;;5070678;28;20270;-63
2022/07/22 09:12:57;;;;;;;7.05;5.50;;;31.70;62.70;;;;;;5070924;28;20225;-65
2022/07/22 09:15:28;;;;;;;9.15;5.47;;;31.20;64.80;;;;;;5070862;28;20672;-61
2022/07/22 09:17:56;;;;;;;6.07;5.40;;;30.60;67.00;;;;;;5071513;28;20576;-61
2022/07/22 09:20:24;;;;;;;7.13;4.85;;;30.30;68.50;;;;;;5071695;28;20228;-61
2022/07/22 09:22:52;;;;;;;6.82;6.20;;;30.10;69.30;;;;;;5071624;28;20229;-60
2022/07/22 09:25:28;;;;;;;6.70;5.63;;;30.10;70.50;;;;;;5071790;28;20604;-60
2022/07/22 09:27:56;;;;;;;7.10;5.47;;;29.70;72.20;;;;;;5071838;28;20204;-61
2022/07/22 09:30:26;;;;;;;5.93;5.20;;;29.40;74.90;;;;;;5071455;28;20197;-60
2022/07/22 09:32:56;;;;;;;7.00;6.20;;;29.20;74.90;;;;;;5070939;28;20278;-61
2022/07/22 09:35:25;;;;;;;8.20;5.07;;;29.40;75.90;;;;;;5071539;28;20212;-62
2022/07/22 09:37:55;;;;;;;7.22;5.45;;;29.40;76.20;;;;;;5071654;28;20274;-62
2022/07/22 09:40:24;;;;;;;6.15;5.20;;;29.50;76.60;;;;;;5071253;28;20228;-63
2022/07/22 09:42:54;;;;;;;8.48;5.90;;;29.60;75.60;;;;;;5071393;28;20739;-62
2022/07/22 09:45:23;;;;;;;7.70;5.72;;;29.40;76.80;;;;;;5071510;28;20209;-62
2022/07/22 09:47:50;;;;;;;6.18;4.85;;;29.30;77.30;;;;;;5071268;28;20215;-62
2022/07/22 09:50:20;;;;;;;9.00;5.30;;;29.40;76.20;;;;;;5071325;28;20208;-64
2022/07/22 09:52:49;;;;;;;9.63;5.18;;;29.40;76.20;;;;;;5069625;28;20236;-62
2022/07/22 09:55:18;;;;;;;7.40;5.10;;;29.60;75.10;;;;;;5077410;28;20310;-62
2022/07/22 09:57:45;;;;;;;5.40;4.78;;;29.80;74.30;;;;;;5090643;28;20200;-62
2022/07/22 10:00:13;;;;;;;6.60;5.07;;;29.80;74.50;;;;;;5089775;28;20576;-62
2022/07/22 10:02:45;;;;;;;6.80;4.93;;;29.90;75.40;;;;;;5090473;28;20228;-63
2022/07/22 10:05:13;;;;;;;6.05;4.40;;;29.90;74.10;;;;;;5091036;28;20579;-62
2022/07/22 10:07:42;;;;;;;5.70;5.10;;;29.80;73.40;;;;;;5090609;28;20692;-62
2022/07/22 10:10:12;;;;;;;8.52;4.75;;;29.80;73.50;;;;;;5090882;28;20211;-62
2022/07/22 10:12:39;;;;;;;6.45;4.50;;;29.80;73.90;;;;;;5090445;28;20232;-61
2022/07/22 10:15:08;;;;;;;7.32;4.70;;;29.80;73.80;;;;;;5090765;28;20219;-62
2022/07/22 10:17:37;;;;;;;5.97;4.55;;;29.90;73.50;;;;;;5090609;28;20637;-62
2022/07/22 10:20:05;;;;;;;5.47;4.07;;;30.00;72.50;;;;;;5090647;28;20243;-62
2022/07/22 10:22:55;;;;;;;4.72;4.13;;;30.20;70.80;;;;;;5090559;28;20239;-64
2022/07/22 10:25:25;;;;;;;5.00;4.15;;;30.20;71.00;;;;;;5083729;28;20625;-63
2022/07/22 10:27:54;;;;;;;7.80;4.47;;;30.30;69.50;;;;;;5091155;28;20316;-62
2022/07/22 10:30:23;;;;;;;6.45;4.00;;;30.30;68.30;;;;;;5091589;28;20200;-62
2022/07/22 10:33:08;;;;;;;4.70;4.20;;;30.50;67.90;;;;;;5089812;28;20285;-62
2022/07/22 10:35:37;;;;;;;4.25;3.80;;;30.50;68.10;;;;;;5089973;28;20211;-64
2022/07/22 10:38:07;;;;;;;5.60;4.25;;;30.60;68.10;;;;;;5090550;28;20204;-63
2022/07/22 10:40:50;;;;;;;5.20;4.22;;;30.80;67.10;;;;;;5090455;28;20320;-64
2022/07/22 10:43:17;;;;;;;4.25;3.53;;;30.90;66.70;;;;;;5090591;28;20224;-64
2022/07/22 10:45:47;;;;;;;4.57;3.78;;;31.10;65.70;;;;;;5092044;28;20234;-63
2022/07/22 10:48:16;;;;;;;6.88;4.50;;;31.20;65.00;;;;;;5093523;28;20313;-63
2022/07/22 10:50:51;;;;;;;7.22;4.00;;;31.10;65.40;;;;;;5093519;28;20685;-64
2022/07/22 10:53:20;;;;;;;5.60;4.30;;;31.00;65.70;;;;;;5093758;28;20232;-63
2022/07/22 10:56:07;;;;;;;7.03;4.43;;;31.00;66.50;;;;;;5093822;28;20204;-61
2022/07/22 10:58:52;;;;;;;6.28;3.95;;;30.90;67.20;;;;;;5093417;28;20206;-62
2022/07/22 11:01:21;;;;;;;4.55;4.15;;;30.70;67.30;;;;;;5092856;28;20575;-63
2022/07/22 11:03:49;;;;;;;5.80;4.43;;;30.70;67.00;;;;;;5093490;28;20212;-63
2022/07/22 11:06:25;;;;;;;6.10;4.50;;;30.90;66.80;;;;;;5094026;28;20577;-63
2022/07/22 11:08:54;;;;;;;4.93;4.13;;;31.00;65.80;;;;;;5093738;28;20268;-63
2022/07/22 11:11:33;;;;;;;4.40;4.00;;;31.00;66.50;;;;;;5093177;28;20656;-63
2022/07/22 11:14:00;;;;;;;4.97;4.05;;;31.10;65.80;;;;;;5093731;28;20286;-60
2022/07/22 11:16:28;;;;;;;4.45;4.00;;;31.20;66.50;;;;;;5094186;28;20620;-60
2022/07/22 11:18:57;;;;;;;4.47;3.88;;;31.20;66.20;;;;;;5094320;28;20287;-61
2022/07/22 11:21:25;;;;;;;5.43;4.35;;;31.30;65.30;;;;;;5093519;28;20224;-60
2022/07/22 11:23:53;;;;;;;5.20;3.90;;;31.40;64.60;;;;;;5093734;28;20208;-60
2022/07/22 11:26:25;;;;;;;5.70;3.83;;;31.60;64.00;;;;;;5093677;28;20695;-60
2022/07/22 11:28:53;;;;;;;4.97;3.88;;;31.70;63.50;;;;;;5093366;28;20204;-60
2022/07/22 11:31:20;;;;;;;8.13;4.40;;;31.70;62.40;;;;;;5092906;28;20208;-60
2022/07/22 11:33:47;;;;;;;6.75;4.28;;;31.60;63.40;;;;;;5093166;28;20242;-60
2022/07/22 11:36:14;;;;;;;6.70;4.38;;;31.60;64.40;;;;;;5093023;28;20241;-59
2022/07/22 11:38:47;;;;;;;5.60;4.28;;;31.60;64.30;;;;;;5093349;28;20265;-65
2022/07/22 11:41:15;;;;;;;5.70;4.35;;;31.70;63.40;;;;;;5092937;28;20232;-62
2022/07/22 11:43:43;;;;;;;6.15;4.20;;;31.60;63.60;;;;;;5093074;28;20204;-62
2022/07/22 11:46:12;;;;;;;4.47;3.95;;;31.60;63.70;;;;;;5093161;28;20219;-62
2022/07/22 11:48:39;;;;;;;7.53;4.40;;;31.60;63.40;;;;;;5092802;28;20246;-64
2022/07/22 11:51:07;;;;;;;5.53;5.03;;;31.70;64.10;;;;;;5093269;28;20566;-64
2022/07/22 11:53:34;;;;;;;6.07;4.20;;;31.60;63.30;;;;;;5093269;28;20232;-62
2022/07/22 11:56:02;;;;;;;5.07;4.30;;;31.70;63.70;;;;;;5092510;28;20204;-63
2022/07/22 11:58:40;;;;;;;5.78;4.30;;;31.80;63.10;;;;;;5092918;28;20204;-63
2022/07/22 12:01:08;;;;;;;5.10;4.55;;;31.80;63.30;;;;;;5092095;28;20703;-64
2022/07/22 12:03:39;;;;;;;4.90;4.40;;;31.80;63.10;;;;;;5092480;28;20617;-61
2022/07/22 12:06:08;;;;;;;5.32;4.53;;;31.70;63.30;;;;;;5092702;28;20204;-61
2022/07/22 12:08:40;;;;;;;6.32;4.28;;;31.70;63.70;;;;;;5092760;28;20212;-62
2022/07/22 12:11:07;;;;;;;6.63;4.85;;;31.90;63.70;;;;;;5092146;28;20623;-62
2022/07/22 12:13:34;;;;;;;5.43;4.93;;;32.10;63.40;;;;;;5091923;28;20228;-62
2022/07/22 12:16:16;;;;;;;6.18;4.20;;;32.20;62.10;;;;;;5092806;28;20254;-63
2022/07/22 12:18:45;;;;;;;5.18;4.25;;;32.20;62.10;;;;;;5092582;28;20638;-62
2022/07/22 12:21:11;;;;;;;5.18;4.28;;;32.20;62.10;;;;;;5091744;28;20301;-62
2022/07/22 12:23:38;;;;;;;6.40;4.05;;;32.30;61.90;;;;;;5092140;28;20224;-66
2022/07/22 12:26:05;;;;;;;4.80;3.70;;;32.30;61.70;;;;;;5091895;28;20204;-64
2022/07/22 12:28:32;;;;;;;4.35;3.95;;;32.20;62.50;;;;;;5092734;28;20208;-62
2022/07/22 12:30:58;;;;;;;5.75;3.83;;;32.30;62.20;;;;;;5091928;28;20229;-62
2022/07/22 12:33:25;;;;;;;4.43;4.03;;;32.60;61.70;;;;;;5092318;28;20236;-62
2022/07/22 12:36:01;;;;;;;5.85;4.80;;;32.70;61.30;;;;;;5092092;28;20617;-64
2022/07/22 12:38:28;;;;;;;6.85;5.97;;;32.80;60.90;;;;;;5091550;28;20199;-62
2022/07/22 12:40:55;;;;;;;4.93;4.18;;;33.00;60.40;;;;;;5091891;28;20255;-61
2022/07/22 12:43:26;;;;;;;7.25;4.50;;;33.10;60.20;;;;;;5091846;28;20224;-65
2022/07/22 12:45:53;;;;;;;11.43;4.60;;;33.20;59.30;;;;;;5092540;28;20208;-68
2022/07/22 12:48:20;;;;;;;4.57;3.80;;;33.20;59.90;;;;;;5093752;28;20238;-60